Arches, Utah
Current Conditions -  °F | °C
As of 9:53 AM on Sunday 23 Nov 2014 (Local Time) from KCNY Reporting Station
Clear Clear  
Wind Chill: 30°   Ceiling: Unl
Heat Index: 40°   Visibility: 10mi
Dew Point: 17°   Wind: 22mph
Humidity: 40%   Direction: 300°WNW
Pressure: 30.03"   Gusts: NA
Location:  38.6903°N, 109.256°W
Report Text: KCNY 231653Z AUTO 30019KT 10SM CLR 04/M08 A3003 RMK AO2 SLP170 T00441083
Loading
Personal Weather Stations






























Interactive Weather Map New forecast layout! Learn more

10-Day Weather Forecast

Advertisements
Track Severe Weather on mobile